Time;durP1;ratioP1;P1;durP2;ratioP2;P2;SDS_P1;SDS_P2;PMS_P1;PMS_P2;Temp;Humidity;BMP_temperature;BMP_pressure;BME280_temperature;BME280_humidity;BME280_pressure;Samples;Min_cycle;Max_cycle;Signal;HPM_P1;HPM_P2
2023/05/04 00:01:46;;;;;;;7.50;4.83;;;;;;;;;;4960640;28;20613;-88
2023/05/04 00:04:12;;;;;;;6.50;5.07;;;;;;;;;;4978279;28;20239;-88
2023/05/04 00:06:38;;;;;;;5.63;5.03;;;;;;;;;;5007367;28;20239;-88
2023/05/04 00:09:08;;;;;;;6.40;4.60;;;;;;;;;;5005390;28;20310;-87
2023/05/04 00:11:36;;;;;;;8.37;5.00;;;;;;;;;;4990971;28;20226;-87
2023/05/04 00:14:04;;;;;;;7.83;4.80;;;;;;;;;;4988204;28;20724;-87
2023/05/04 00:16:32;;;;;;;5.90;5.00;;;;;;;;;;4954752;28;20624;-88
2023/05/04 00:19:00;;;;;;;7.10;5.20;;;;;;;;;;4998669;28;20542;-88
2023/05/04 00:21:26;;;;;;;5.63;4.80;;;;;;;;;;5001919;28;20223;-86
2023/05/04 00:23:52;;;;;;;6.77;4.73;;;;;;;;;;5002510;28;20293;-86
2023/05/04 00:26:17;;;;;;;9.20;4.50;;;;;;;;;;4959317;28;20221;-88
2023/05/04 00:28:43;;;;;;;6.43;4.33;;;;;;;;;;4996554;28;20222;-88
2023/05/04 00:31:10;;;;;;;4.80;4.20;;;;;;;;;;4992582;28;20228;-87
2023/05/04 00:33:36;;;;;;;6.07;4.20;;;;;;;;;;5004268;28;20212;-87
2023/05/04 00:36:02;;;;;;;6.23;3.97;;;;;;;;;;5016991;28;20216;-87
2023/05/04 00:38:47;;;;;;;5.13;3.90;;;;;;;;;;5015569;28;20227;-88
2023/05/04 00:41:15;;;;;;;6.30;3.97;;;;;;;;;;4985641;28;20219;-87
2023/05/04 00:43:46;;;;;;;7.90;3.67;;;;;;;;;;4992177;28;20304;-87
2023/05/04 00:46:12;;;;;;;4.63;3.40;;;;;;;;;;5004731;28;20230;-87
2023/05/04 00:48:40;;;;;;;4.10;3.40;;;;;;;;;;5007423;28;20229;-87
2023/05/04 00:51:06;;;;;;;7.63;3.10;;;;;;;;;;4999029;28;20212;-88
2023/05/04 00:53:35;;;;;;;5.27;3.90;;;;;;;;;;4981741;28;20247;-88
2023/05/04 00:56:07;;;;;;;6.70;3.67;;;;;;;;;;4971231;28;20236;-87
2023/05/04 00:58:33;;;;;;;5.10;3.43;;;;;;;;;;4970936;28;20220;-88
2023/05/04 01:00:59;;;;;;;4.53;3.40;;;;;;;;;;4965067;28;20219;-87
2023/05/04 01:03:24;;;;;;;5.63;3.30;;;;;;;;;;4986885;28;20694;-87
2023/05/04 01:06:19;;;;;;;5.90;3.27;;;;;;;;;;5006387;28;20624;-88
2023/05/04 01:08:52;;;;;;;4.33;3.23;;;;;;;;;;4971337;28;20223;-87
2023/05/04 01:11:29;;;;;;;4.60;3.00;;;;;;;;;;4989930;28;20274;-87
2023/05/04 01:13:57;;;;;;;5.80;3.40;;;;;;;;;;5013292;28;20265;-87
2023/05/04 01:16:25;;;;;;;4.70;3.23;;;;;;;;;;4991066;28;20234;-87
2023/05/04 01:18:50;;;;;;;8.40;3.37;;;;;;;;;;5002320;28;20227;-87
2023/05/04 01:21:19;;;;;;;9.43;3.30;;;;;;;;;;4986081;28;20608;-86
2023/05/04 01:23:45;;;;;;;6.37;3.10;;;;;;;;;;4974133;28;20634;-87
2023/05/04 01:26:14;;;;;;;4.30;2.80;;;;;;;;;;4996316;28;20234;-88
2023/05/04 01:28:43;;;;;;;4.43;3.20;;;;;;;;;;5002799;28;20243;-87
2023/05/04 01:31:12;;;;;;;4.57;3.00;;;;;;;;;;4983449;28;20697;-86
2023/05/04 01:33:40;;;;;;;7.10;2.83;;;;;;;;;;4985437;28;20231;-87
2023/05/04 01:36:06;;;;;;;4.67;2.90;;;;;;;;;;4985823;28;20220;-86
2023/05/04 01:38:34;;;;;;;5.37;3.07;;;;;;;;;;5004683;28;20223;-86
2023/05/04 01:41:01;;;;;;;5.53;3.00;;;;;;;;;;4990811;28;20208;-87
2023/05/04 01:43:27;;;;;;;7.77;3.33;;;;;;;;;;4981575;28;20412;-87
2023/05/04 01:45:52;;;;;;;5.60;2.87;;;;;;;;;;4980905;28;20756;-87
2023/05/04 01:48:18;;;;;;;8.57;2.63;;;;;;;;;;4986833;28;20228;-86
2023/05/04 01:50:43;;;;;;;6.77;3.13;;;;;;;;;;4993399;28;20888;-87
2023/05/04 01:53:09;;;;;;;4.57;3.07;;;;;;;;;;4988426;28;20705;-87
2023/05/04 01:55:37;;;;;;;6.07;3.13;;;;;;;;;;5001910;28;20216;-86
2023/05/04 01:58:06;;;;;;;5.30;2.70;;;;;;;;;;4993230;28;20220;-88
2023/05/04 02:00:32;;;;;;;7.80;2.83;;;;;;;;;;4992428;28;20723;-87
2023/05/04 02:03:01;;;;;;;6.70;3.10;;;;;;;;;;4982183;28;20233;-87
2023/05/04 02:05:29;;;;;;;5.57;3.03;;;;;;;;;;4989646;28;20243;-87
2023/05/04 02:07:57;;;;;;;5.40;3.10;;;;;;;;;;4985411;28;20225;-86
2023/05/04 02:10:27;;;;;;;5.70;2.83;;;;;;;;;;4988976;28;20316;-87
2023/05/04 02:12:53;;;;;;;4.97;2.73;;;;;;;;;;5026363;28;20764;-86
2023/05/04 02:15:21;;;;;;;6.30;2.97;;;;;;;;;;5005895;28;20232;-87
2023/05/04 02:17:48;;;;;;;3.50;2.70;;;;;;;;;;5002474;28;20212;-87
2023/05/04 02:20:14;;;;;;;5.30;3.20;;;;;;;;;;4990237;28;20228;-87
2023/05/04 02:22:46;;;;;;;5.37;2.70;;;;;;;;;;4976224;28;20220;-87
2023/05/04 02:25:15;;;;;;;5.57;3.10;;;;;;;;;;5003412;28;20229;-88
2023/05/04 02:27:41;;;;;;;5.00;2.93;;;;;;;;;;5005446;28;20236;-86
2023/05/04 02:30:07;;;;;;;3.90;2.40;;;;;;;;;;5006227;28;20232;-86
2023/05/04 02:32:33;;;;;;;5.33;2.80;;;;;;;;;;5008695;28;20212;-86
2023/05/04 02:34:58;;;;;;;5.37;2.80;;;;;;;;;;4978649;28;20212;-86
2023/05/04 02:37:27;;;;;;;8.97;3.23;;;;;;;;;;4989521;28;20218;-87
2023/05/04 02:39:57;;;;;;;5.50;2.90;;;;;;;;;;4995968;28;20265;-85
2023/05/04 02:42:22;;;;;;;6.73;3.10;;;;;;;;;;4991689;28;20221;-85
2023/05/04 02:44:50;;;;;;;7.80;3.00;;;;;;;;;;4985470;28;20246;-86
2023/05/04 02:47:21;;;;;;;8.13;3.00;;;;;;;;;;4988854;28;20301;-86
2023/05/04 02:49:46;;;;;;;7.53;3.07;;;;;;;;;;4994776;28;20219;-87
2023/05/04 02:52:12;;;;;;;7.50;3.20;;;;;;;;;;5010620;28;20232;-86
2023/05/04 02:54:37;;;;;;;6.00;3.00;;;;;;;;;;4987016;28;20700;-86
2023/05/04 02:57:03;;;;;;;6.37;3.00;;;;;;;;;;4992424;28;20220;-86
2023/05/04 02:59:32;;;;;;;6.97;3.00;;;;;;;;;;5000340;28;20252;-87
2023/05/04 03:01:57;;;;;;;5.57;2.83;;;;;;;;;;5006722;28;20231;-87
2023/05/04 03:04:28;;;;;;;10.43;3.07;;;;;;;;;;5003573;28;20557;-87
2023/05/04 03:06:54;;;;;;;6.07;3.10;;;;;;;;;;4974267;28;20283;-87
2023/05/04 03:09:19;;;;;;;5.00;2.43;;;;;;;;;;4998606;28;20225;-87
2023/05/04 03:11:47;;;;;;;7.30;2.97;;;;;;;;;;4987529;28;20243;-87
2023/05/04 03:14:15;;;;;;;5.50;2.90;;;;;;;;;;4965855;28;20219;-87
2023/05/04 03:16:41;;;;;;;9.00;5.20;;;;;;;;;;4984763;28;20217;-87
2023/05/04 03:19:07;;;;;;;9.13;3.90;;;;;;;;;;4988761;28;20290;-88
2023/05/04 03:21:34;;;;;;;7.80;3.30;;;;;;;;;;5003900;28;20235;-86
2023/05/04 03:23:59;;;;;;;6.20;2.80;;;;;;;;;;5002172;28;20323;-87
2023/05/04 03:26:25;;;;;;;8.83;3.10;;;;;;;;;;5013946;28;20712;-86
2023/05/04 03:28:54;;;;;;;7.13;3.37;;;;;;;;;;5024544;28;20230;-86
2023/05/04 03:31:22;;;;;;;8.67;3.13;;;;;;;;;;4990645;28;22172;-85
2023/05/04 03:33:50;;;;;;;6.63;3.47;;;;;;;;;;5008522;28;20216;-85
2023/05/04 03:36:20;;;;;;;7.67;3.30;;;;;;;;;;4999019;28;20230;-87
2023/05/04 03:38:48;;;;;;;6.20;3.20;;;;;;;;;;4989520;28;20224;-87
2023/05/04 03:41:17;;;;;;;7.30;3.30;;;;;;;;;;5002886;28;20225;-87
2023/05/04 03:43:43;;;;;;;4.97;3.10;;;;;;;;;;4982591;28;20590;-87
2023/05/04 03:46:11;;;;;;;8.27;3.30;;;;;;;;;;4981171;28;20226;-88
2023/05/04 03:48:45;;;;;;;5.87;3.30;;;;;;;;;;5004026;28;20227;-79
2023/05/04 03:51:13;;;;;;;5.60;4.10;;;;;;;;;;5008182;28;20212;-79
2023/05/04 03:53:40;;;;;;;7.87;3.90;;;;;;;;;;5003696;28;20584;-80
2023/05/04 03:56:08;;;;;;;6.40;3.50;;;;;;;;;;4974661;28;20753;-78
2023/05/04 03:58:33;;;;;;;6.80;3.43;;;;;;;;;;4991449;28;20231;-78
2023/05/04 04:01:09;;;;;;;4.27;2.80;;;;;;;;;;5010571;28;20217;-80
2023/05/04 04:03:37;;;;;;;4.37;3.03;;;;;;;;;;5003212;28;20222;-78
2023/05/04 04:06:04;;;;;;;6.50;2.90;;;;;;;;;;4972381;28;20220;-78
2023/05/04 04:08:30;;;;;;;4.23;2.93;;;;;;;;;;5003620;28;20239;-78
2023/05/04 04:10:57;;;;;;;7.93;3.43;;;;;;;;;;5024766;28;20220;-79
2023/05/04 04:13:26;;;;;;;5.43;2.97;;;;;;;;;;5003586;28;20224;-80
2023/05/04 04:15:58;;;;;;;4.90;3.20;;;;;;;;;;4996736;28;20955;-77
2023/05/04 04:18:27;;;;;;;7.10;3.30;;;;;;;;;;5004194;28;20293;-80
2023/05/04 04:20:52;;;;;;;7.30;3.30;;;;;;;;;;5032517;28;20243;-77
2023/05/04 04:23:20;;;;;;;7.23;3.30;;;;;;;;;;4983861;28;20310;-78
2023/05/04 04:25:46;;;;;;;6.60;3.27;;;;;;;;;;4990140;28;20652;-78
2023/05/04 04:28:12;;;;;;;5.90;3.00;;;;;;;;;;4982346;28;20224;-79
2023/05/04 04:30:40;;;;;;;5.60;2.70;;;;;;;;;;4999324;28;20560;-81
2023/05/04 04:33:06;;;;;;;5.80;2.97;;;;;;;;;;5006850;28;20220;-81
2023/05/04 04:35:34;;;;;;;8.10;3.13;;;;;;;;;;5028938;28;20541;-81
2023/05/04 04:38:02;;;;;;;6.43;2.80;;;;;;;;;;4997414;28;20216;-80
2023/05/04 04:40:28;;;;;;;9.17;3.40;;;;;;;;;;4988510;28;20231;-79
2023/05/04 04:42:53;;;;;;;8.67;3.07;;;;;;;;;;5002486;28;20216;-79
2023/05/04 04:45:19;;;;;;;7.20;3.00;;;;;;;;;;5019806;28;20241;-79
2023/05/04 04:47:51;;;;;;;5.83;3.00;;;;;;;;;;4989625;28;20224;-81
2023/05/04 04:50:19;;;;;;;8.57;2.83;;;;;;;;;;5004010;28;20224;-79
2023/05/04 04:52:44;;;;;;;5.10;2.83;;;;;;;;;;4984993;28;20232;-80
2023/05/04 04:55:10;;;;;;;5.13;2.87;;;;;;;;;;4987899;28;20215;-81
2023/05/04 04:57:36;;;;;;;5.00;2.90;;;;;;;;;;4989048;28;20216;-79
2023/05/04 05:00:10;;;;;;;7.13;3.30;;;;;;;;;;5004720;28;21120;-79
2023/05/04 05:02:38;;;;;;;6.47;3.43;;;;;;;;;;4980156;28;20711;-79
2023/05/04 05:05:04;;;;;;;6.07;2.80;;;;;;;;;;4985296;28;20787;-79
2023/05/04 05:07:29;;;;;;;7.50;2.90;;;;;;;;;;4999918;28;20216;-79
2023/05/04 05:09:55;;;;;;;6.50;3.10;;;;;;;;;;5000755;28;20224;-80
2023/05/04 05:12:23;;;;;;;7.20;3.00;;;;;;;;;;4980306;28;20222;-81
2023/05/04 05:14:51;;;;;;;7.10;2.87;;;;;;;;;;4979582;28;20220;-80
2023/05/04 05:17:17;;;;;;;7.17;3.10;;;;;;;;;;4979166;28;20224;-81
2023/05/04 05:19:45;;;;;;;4.77;2.57;;;;;;;;;;4992058;28;20214;-80
2023/05/04 05:22:11;;;;;;;8.00;3.00;;;;;;;;;;5002216;28;20255;-81
2023/05/04 05:24:36;;;;;;;6.50;2.63;;;;;;;;;;4980690;28;20247;-81
2023/05/04 05:27:02;;;;;;;6.70;2.83;;;;;;;;;;5003608;28;20261;-81
2023/05/04 05:29:30;;;;;;;5.23;2.80;;;;;;;;;;5008337;28;20231;-81
2023/05/04 05:31:56;;;;;;;6.40;3.03;;;;;;;;;;5003737;28;20224;-80
2023/05/04 05:34:24;;;;;;;6.60;2.77;;;;;;;;;;5006656;28;20224;-80
2023/05/04 05:36:49;;;;;;;7.83;2.80;;;;;;;;;;5026856;28;20203;-80
2023/05/04 05:39:15;;;;;;;7.90;2.83;;;;;;;;;;5020592;28;20236;-80
2023/05/04 05:41:42;;;;;;;5.67;2.70;;;;;;;;;;5015916;28;20215;-80
2023/05/04 05:44:11;;;;;;;6.83;3.00;;;;;;;;;;4989877;28;20551;-79
2023/05/04 05:46:36;;;;;;;6.07;2.97;;;;;;;;;;5007131;28;20224;-80
2023/05/04 05:49:04;;;;;;;6.00;2.70;;;;;;;;;;4988095;28;20281;-80
2023/05/04 05:51:30;;;;;;;5.43;2.87;;;;;;;;;;5003945;28;20414;-80
2023/05/04 05:53:56;;;;;;;6.60;2.60;;;;;;;;;;5020098;28;20937;-80
2023/05/04 05:56:21;;;;;;;4.77;2.73;;;;;;;;;;4998721;28;20212;-77
2023/05/04 05:58:46;;;;;;;5.43;2.63;;;;;;;;;;5018879;22;20214;-73
2023/05/04 06:03:47;;;;;;;5.20;3.03;;;;;;;;;;4994349;28;20243;-78
2023/05/04 06:06:15;;;;;;;4.40;2.57;;;;;;;;;;4983258;28;20232;-80
2023/05/04 06:08:40;;;;;;;5.67;2.63;;;;;;;;;;4978738;28;20233;-80
2023/05/04 06:11:06;;;;;;;6.43;2.60;;;;;;;;;;4967357;28;20792;-78
2023/05/04 06:13:31;;;;;;;6.67;2.57;;;;;;;;;;4966654;28;20271;-79
2023/05/04 06:15:57;;;;;;;6.67;2.57;;;;;;;;;;4965008;28;20230;-80
2023/05/04 06:18:27;;;;;;;5.70;2.80;;;;;;;;;;4967987;28;20228;-79
2023/05/04 06:20:59;;;;;;;6.03;2.50;;;;;;;;;;4969139;28;20987;-80
2023/05/04 06:23:26;;;;;;;6.13;2.50;;;;;;;;;;4996041;28;20220;-79
2023/05/04 06:25:52;;;;;;;6.03;2.53;;;;;;;;;;4953255;28;20292;-80
2023/05/04 06:28:17;;;;;;;4.47;2.23;;;;;;;;;;4967356;28;20287;-82
2023/05/04 06:30:43;;;;;;;5.63;2.43;;;;;;;;;;4915905;28;20222;-81
2023/05/04 06:33:09;;;;;;;7.03;2.40;;;;;;;;;;4952306;28;20575;-80
2023/05/04 06:35:37;;;;;;;7.30;2.87;;;;;;;;;;4952807;28;20355;-79
2023/05/04 06:38:05;;;;;;;5.23;2.40;;;;;;;;;;4966628;28;20202;-80
2023/05/04 06:40:33;;;;;;;5.93;2.43;;;;;;;;;;4963267;28;20221;-81
2023/05/04 06:42:58;;;;;;;4.83;2.53;;;;;;;;;;4952143;28;20634;-80
2023/05/04 06:45:26;;;;;;;4.13;2.20;;;;;;;;;;4949416;28;20840;-81
2023/05/04 06:47:54;;;;;;;6.87;2.40;;;;;;;;;;4952949;28;20315;-82
2023/05/04 06:50:22;;;;;;;5.57;2.50;;;;;;;;;;4982374;28;20232;-80
2023/05/04 06:52:48;;;;;;;4.50;2.10;;;;;;;;;;4972779;28;20271;-80
2023/05/04 06:55:15;;;;;;;7.07;2.10;;;;;;;;;;4998123;28;20575;-81
2023/05/04 06:57:43;;;;;;;5.83;2.67;;;;;;;;;;4987224;28;20268;-78
2023/05/04 07:00:11;;;;;;;6.47;2.40;;;;;;;;;;4952720;28;20255;-80
2023/05/04 07:02:37;;;;;;;4.97;2.10;;;;;;;;;;4950886;28;20216;-80
2023/05/04 07:05:03;;;;;;;3.93;2.17;;;;;;;;;;4982167;28;20765;-79
2023/05/04 07:07:28;;;;;;;4.70;2.30;;;;;;;;;;4953766;28;20266;-79
2023/05/04 07:09:54;;;;;;;4.97;2.10;;;;;;;;;;4966923;28;20224;-79
2023/05/04 07:12:21;;;;;;;3.37;1.90;;;;;;;;;;4985228;28;20225;-80
2023/05/04 07:14:47;;;;;;;5.47;2.23;;;;;;;;;;4984379;28;20255;-79
2023/05/04 07:17:13;;;;;;;3.90;1.97;;;;;;;;;;4968440;28;20229;-78
2023/05/04 07:19:41;;;;;;;8.80;2.47;;;;;;;;;;4983177;28;20791;-78
2023/05/04 07:22:08;;;;;;;4.80;2.20;;;;;;;;;;4950519;28;20228;-77
2023/05/04 07:24:37;;;;;;;3.90;2.00;;;;;;;;;;4984400;28;20275;-80
2023/05/04 07:27:03;;;;;;;4.53;2.03;;;;;;;;;;4968389;28;20725;-77
2023/05/04 07:29:28;;;;;;;6.87;2.10;;;;;;;;;;4980637;28;20296;-81
2023/05/04 07:31:54;;;;;;;4.73;1.97;;;;;;;;;;4948300;28;20249;-77
2023/05/04 07:34:22;;;;;;;5.27;2.00;;;;;;;;;;4981659;28;20225;-80
2023/05/04 07:36:54;;;;;;;3.77;2.00;;;;;;;;;;4970888;28;20712;-80
2023/05/04 07:39:22;;;;;;;7.17;2.73;;;;;;;;;;4981449;28;20361;-78
2023/05/04 07:41:53;;;;;;;3.97;2.03;;;;;;;;;;4957262;28;20218;-79
2023/05/04 07:44:24;;;;;;;4.93;1.93;;;;;;;;;;4981011;28;20221;-79
2023/05/04 07:46:50;;;;;;;4.85;2.22;;;;;;;;;;4949332;28;20701;-79
2023/05/04 07:49:15;;;;;;;6.05;2.15;;;;;;;;;;4967591;28;20227;-79
2023/05/04 07:51:41;;;;;;;3.55;1.90;;;;;;;;;;4966867;28;20229;-77
2023/05/04 07:54:06;;;;;;;3.13;1.65;;;;;;;;;;4947321;28;20722;-78
2023/05/04 07:56:32;;;;;;;3.13;1.60;;;;;;;;;;4968720;28;20241;-78
2023/05/04 07:58:57;;;;;;;3.83;2.03;;;;;;;;;;4984905;28;20222;-79
2023/05/04 08:01:24;;;;;;;6.85;2.15;;;;;;;;;;4968329;28;20719;-81
2023/05/04 08:03:52;;;;;;;4.95;1.92;;;;;;;;;;4972133;28;20221;-78
2023/05/04 08:06:17;;;;;;;3.30;1.90;;;;;;;;;;4954073;28;20237;-79
2023/05/04 08:08:43;;;;;;;6.03;2.10;;;;;;;;;;4965812;28;20229;-79
2023/05/04 08:11:12;;;;;;;5.68;1.80;;;;;;;;;;4969161;28;20226;-78
2023/05/04 08:13:38;;;;;;;4.68;1.67;;;;;;;;;;4947070;28;21107;-79
2023/05/04 08:16:08;;;;;;;4.05;1.63;;;;;;;;;;4963727;28;20463;-79
2023/05/04 08:18:33;;;;;;;5.50;1.75;;;;;;;;;;4977058;28;20287;-78
2023/05/04 08:21:01;;;;;;;6.28;1.88;;;;;;;;;;4953044;28;20217;-78
2023/05/04 08:23:27;;;;;;;5.18;1.80;;;;;;;;;;4965748;28;20297;-78
2023/05/04 08:25:52;;;;;;;6.97;2.20;;;;;;;;;;4966529;28;20217;-80
2023/05/04 08:28:18;;;;;;;3.92;1.90;;;;;;;;;;4968886;28;20233;-78
2023/05/04 08:30:43;;;;;;;4.80;2.05;;;;;;;;;;4968084;28;20733;-79
2023/05/04 08:33:29;;;;;;;5.80;1.70;;;;;;;;;;4950202;28;20217;-80
2023/05/04 08:35:57;;;;;;;4.88;1.77;;;;;;;;;;4981616;28;20213;-79
2023/05/04 08:38:30;;;;;;;4.32;1.70;;;;;;;;;;4962583;28;20226;-80
2023/05/04 08:40:56;;;;;;;2.55;1.70;;;;;;;;;;4963560;28;20218;-80
2023/05/04 08:43:24;;;;;;;3.45;1.67;;;;;;;;;;4962964;28;20211;-80
2023/05/04 08:45:50;;;;;;;4.60;1.80;;;;;;;;;;4965736;28;20638;-78
2023/05/04 08:48:19;;;;;;;5.03;1.55;;;;;;;;;;4977156;28;20235;-80
2023/05/04 08:50:44;;;;;;;4.50;1.75;;;;;;;;;;4946873;28;20217;-78
2023/05/04 08:53:13;;;;;;;2.78;1.48;;;;;;;;;;4963388;28;20221;-82
2023/05/04 08:55:40;;;;;;;5.15;2.15;;;;;;;;;;4951149;28;20253;-80
2023/05/04 08:58:12;;;;;;;3.67;1.65;;;;;;;;;;4945627;28;20610;-81
2023/05/04 09:00:38;;;;;;;5.05;1.80;;;;;;;;;;4963791;28;20257;-81
2023/05/04 09:03:04;;;;;;;3.80;1.48;;;;;;;;;;4966106;28;20251;-80
2023/05/04 09:05:41;;;;;;;4.47;1.80;;;;;;;;;;4989035;28;20238;-81
2023/05/04 09:08:06;;;;;;;3.22;1.77;;;;;;;;;;4966898;28;20304;-80
2023/05/04 09:10:35;;;;;;;4.65;1.88;;;;;;;;;;4959937;28;20286;-80
2023/05/04 09:13:03;;;;;;;3.20;1.55;;;;;;;;;;4978764;28;20209;-77
2023/05/04 09:15:31;;;;;;;4.65;2.00;;;;;;;;;;4963779;28;20225;-78
2023/05/04 09:17:59;;;;;;;3.83;1.80;;;;;;;;;;4994150;28;20248;-77
2023/05/04 09:20:25;;;;;;;2.95;1.38;;;;;;;;;;4991660;28;20233;-77
2023/05/04 09:23:06;;;;;;;4.90;2.00;;;;;;;;;;4961253;28;20690;-80
2023/05/04 09:25:50;;;;;;;8.35;2.00;;;;;;;;;;4943399;28;20212;-79
2023/05/04 09:28:19;;;;;;;4.00;1.80;;;;;;;;;;4986554;28;20237;-76
2023/05/04 09:30:47;;;;;;;2.92;1.70;;;;;;;;;;4956826;28;20224;-78
2023/05/04 09:33:14;;;;;;;2.95;1.65;;;;;;;;;;4984191;28;20229;-79
2023/05/04 09:35:41;;;;;;;3.42;1.52;;;;;;;;;;4954043;28;20217;-81
2023/05/04 09:38:07;;;;;;;4.55;1.83;;;;;;;;;;4987036;28;20213;-79
2023/05/04 09:40:39;;;;;;;6.28;1.92;;;;;;;;;;4973585;28;20235;-79
2023/05/04 09:43:12;;;;;;;4.30;1.80;;;;;;;;;;4968406;28;20225;-78
2023/05/04 09:45:38;;;;;;;4.95;1.75;;;;;;;;;;4986941;28;20216;-80
2023/05/04 09:48:25;;;;;;;2.85;1.70;;;;;;;;;;4972960;28;20220;-80
2023/05/04 09:50:57;;;;;;;5.03;1.80;;;;;;;;;;4987745;28;20221;-79
2023/05/04 09:53:27;;;;;;;5.63;1.80;;;;;;;;;;4970326;28;20323;-79
2023/05/04 09:56:05;;;;;;;4.50;1.80;;;;;;;;;;4971679;28;20221;-80
2023/05/04 09:58:31;;;;;;;2.85;1.55;;;;;;;;;;4984437;28;20278;-80
2023/05/04 10:00:57;;;;;;;3.83;1.50;;;;;;;;;;4954759;28;20220;-81
2023/05/04 10:03:23;;;;;;;5.35;1.60;;;;;;;;;;4978939;28;20229;-81
2023/05/04 10:05:51;;;;;;;7.05;1.90;;;;;;;;;;4959475;28;20289;-80
2023/05/04 10:08:18;;;;;;;3.90;1.60;;;;;;;;;;4951628;28;20732;-79
2023/05/04 10:10:46;;;;;;;4.40;1.60;;;;;;;;;;4955076;28;20225;-77
2023/05/04 10:13:12;;;;;;;4.90;2.22;;;;;;;;;;4965861;28;20843;-76
2023/05/04 10:16:07;;;;;;;3.28;1.65;;;;;;;;;;4980262;28;20232;-80
2023/05/04 10:19:10;;;;;;;3.50;1.52;;;;;;;;;;4985172;28;21657;-78
2023/05/04 10:21:58;;;;;;;3.22;1.70;;;;;;;;;;4986180;28;20249;-80
2023/05/04 10:25:04;;;;;;;3.05;1.80;;;;;;;;;;4960349;28;20929;-79
2023/05/04 10:27:38;;;;;;;3.22;1.50;;;;;;;;;;4958205;28;20232;-79
2023/05/04 10:30:07;;;;;;;3.22;1.50;;;;;;;;;;4988889;28;20269;-81
2023/05/04 10:32:38;;;;;;;4.70;1.60;;;;;;;;;;4970101;28;20236;-79
2023/05/04 10:35:07;;;;;;;4.15;1.80;;;;;;;;;;4962667;28;20241;-79
2023/05/04 10:37:33;;;;;;;4.47;1.60;;;;;;;;;;4985649;28;20255;-78
2023/05/04 10:39:58;;;;;;;3.22;1.40;;;;;;;;;;4966012;28;20288;-79
2023/05/04 10:42:24;;;;;;;3.97;1.52;;;;;;;;;;4968357;28;20225;-80
2023/05/04 10:44:55;;;;;;;3.53;1.52;;;;;;;;;;4967075;28;20225;-79
2023/05/04 10:47:31;;;;;;;4.50;1.83;;;;;;;;;;4976281;28;20224;-80
2023/05/04 10:50:14;;;;;;;2.80;1.52;;;;;;;;;;4974232;28;20833;-82
2023/05/04 10:52:47;;;;;;;3.28;1.45;;;;;;;;;;4983169;28;20685;-80
2023/05/04 10:55:37;;;;;;;4.15;1.58;;;;;;;;;;4976033;28;20236;-80
2023/05/04 10:58:05;;;;;;;3.13;1.50;;;;;;;;;;4979880;28;20217;-81
2023/05/04 11:00:40;;;;;;;2.67;1.65;;;;;;;;;;4952512;28;20236;-81
2023/05/04 11:03:10;;;;;;;2.47;1.50;;;;;;;;;;4984242;28;20308;-78
2023/05/04 11:05:42;;;;;;;3.85;1.70;;;;;;;;;;4979267;28;20729;-79
2023/05/04 11:08:15;;;;;;;3.72;1.45;;;;;;;;;;4997981;28;20268;-82
2023/05/04 11:10:43;;;;;;;2.45;1.33;;;;;;;;;;4966409;28;20626;-78
2023/05/04 11:13:11;;;;;;;5.50;1.40;;;;;;;;;;4970240;28;21061;-80
2023/05/04 11:15:46;;;;;;;3.47;1.50;;;;;;;;;;4982048;28;20229;-80
2023/05/04 11:18:11;;;;;;;3.38;1.50;;;;;;;;;;4984228;28;20226;-79
2023/05/04 11:20:40;;;;;;;3.17;1.42;;;;;;;;;;4981528;28;20971;-79
2023/05/04 11:23:09;;;;;;;3.25;1.33;;;;;;;;;;4979600;28;20319;-79
2023/05/04 11:25:37;;;;;;;2.20;1.55;;;;;;;;;;4971294;28;20240;-80
2023/05/04 11:28:03;;;;;;;2.88;1.35;;;;;;;;;;4961763;28;20296;-77
2023/05/04 11:30:32;;;;;;;3.10;1.33;;;;;;;;;;4965969;28;20393;-79
2023/05/04 11:32:59;;;;;;;5.13;1.60;;;;;;;;;;5001441;28;20220;-78
2023/05/04 11:35:24;;;;;;;3.17;1.40;;;;;;;;;;4967068;28;20229;-79
2023/05/04 11:37:50;;;;;;;4.15;1.38;;;;;;;;;;4967114;28;20711;-79
2023/05/04 11:40:20;;;;;;;4.70;1.50;;;;;;;;;;4984321;28;20249;-81
2023/05/04 11:42:48;;;;;;;3.13;1.38;;;;;;;;;;4981613;28;20229;-80
2023/05/04 11:45:21;;;;;;;3.90;1.55;;;;;;;;;;4950253;28;20294;-76
2023/05/04 11:47:52;;;;;;;4.13;1.30;;;;;;;;;;4971999;28;20284;-80
2023/05/04 11:50:19;;;;;;;3.38;1.50;;;;;;;;;;4955996;28;20224;-76
2023/05/04 11:52:45;;;;;;;3.85;0.95;;;;;;;;;;4958442;28;20210;-77
2023/05/04 11:55:14;;;;;;;1.73;1.30;;;;;;;;;;5003386;28;20223;-82
2023/05/04 11:57:40;;;;;;;5.32;1.45;;;;;;;;;;4975507;28;20708;-79
2023/05/04 12:00:07;;;;;;;4.15;1.67;;;;;;;;;;4981070;28;20275;-80
2023/05/04 12:02:35;;;;;;;3.83;1.40;;;;;;;;;;4981991;28;20552;-80
2023/05/04 12:05:01;;;;;;;2.42;1.40;;;;;;;;;;4967543;28;20236;-79
2023/05/04 12:07:29;;;;;;;4.43;1.55;;;;;;;;;;4996190;28;20994;-81
2023/05/04 12:09:54;;;;;;;4.95;1.55;;;;;;;;;;4984598;28;20226;-82
2023/05/04 12:12:21;;;;;;;3.13;1.40;;;;;;;;;;4966565;28;20222;-80
2023/05/04 12:14:47;;;;;;;2.78;1.38;;;;;;;;;;4966111;28;20271;-80
2023/05/04 12:17:13;;;;;;;5.78;1.50;;;;;;;;;;4968051;28;20664;-80
2023/05/04 12:19:55;;;;;;;2.63;1.55;;;;;;;;;;4988802;28;20236;-79
2023/05/04 12:22:31;;;;;;;2.75;1.33;;;;;;;;;;4963324;28;20228;-78
2023/05/04 12:24:59;;;;;;;2.13;1.40;;;;;;;;;;4984345;28;20237;-79
2023/05/04 12:27:25;;;;;;;3.53;1.60;;;;;;;;;;4962663;28;20241;-83
2023/05/04 12:29:53;;;;;;;2.95;1.60;;;;;;;;;;4986274;28;21205;-78
2023/05/04 12:32:21;;;;;;;4.30;1.40;;;;;;;;;;4983710;28;20829;-76
2023/05/04 12:34:49;;;;;;;4.25;1.88;;;;;;;;;;4951915;28;20235;-80
2023/05/04 12:37:14;;;;;;;5.10;1.63;;;;;;;;;;4948023;28;20589;-80
2023/05/04 12:39:40;;;;;;;4.18;1.52;;;;;;;;;;4967005;28;20221;-79
2023/05/04 12:42:09;;;;;;;3.13;1.50;;;;;;;;;;4950491;28;20812;-81
2023/05/04 12:44:34;;;;;;;3.22;1.80;;;;;;;;;;4983975;28;20247;-80
2023/05/04 12:47:00;;;;;;;3.72;1.50;;;;;;;;;;4986950;28;20217;-80
2023/05/04 12:49:28;;;;;;;3.35;1.30;;;;;;;;;;4949138;28;20732;-79
2023/05/04 12:51:57;;;;;;;2.67;1.60;;;;;;;;;;4984972;28;20221;-80
2023/05/04 12:54:24;;;;;;;2.40;1.40;;;;;;;;;;4979036;28;20225;-81
2023/05/04 12:56:51;;;;;;;3.55;1.55;;;;;;;;;;4980194;28;20219;-78
2023/05/04 12:59:16;;;;;;;3.40;1.60;;;;;;;;;;4981780;28;20228;-79
2023/05/04 13:01:44;;;;;;;1.98;1.38;;;;;;;;;;4967066;28;20244;-80
2023/05/04 13:04:13;;;;;;;3.58;1.60;;;;;;;;;;4965713;28;20221;-78
2023/05/04 13:06:38;;;;;;;2.88;1.65;;;;;;;;;;4952445;28;20974;-80
2023/05/04 13:09:04;;;;;;;5.68;1.60;;;;;;;;;;4950647;28;20228;-79
2023/05/04 13:11:31;;;;;;;3.72;1.60;;;;;;;;;;4983152;28;20231;-81
2023/05/04 13:13:56;;;;;;;3.90;1.58;;;;;;;;;;4998146;28;20244;-79
2023/05/04 13:16:25;;;;;;;3.17;1.50;;;;;;;;;;4966463;28;20213;-78
2023/05/04 13:18:51;;;;;;;2.85;1.50;;;;;;;;;;4998233;28;20307;-79
2023/05/04 13:21:16;;;;;;;2.83;1.50;;;;;;;;;;4952523;28;20213;-78
2023/05/04 13:23:42;;;;;;;3.25;1.50;;;;;;;;;;4963868;28;20229;-79
2023/05/04 13:26:07;;;;;;;4.72;1.58;;;;;;;;;;4989134;28;20232;-80
2023/05/04 13:28:33;;;;;;;4.70;1.70;;;;;;;;;;4955645;28;20329;-79
2023/05/04 13:30:58;;;;;;;5.40;1.40;;;;;;;;;;4988392;28;20898;-83
2023/05/04 13:33:24;;;;;;;2.22;1.50;;;;;;;;;;4991342;28;20225;-83
2023/05/04 13:35:50;;;;;;;3.13;1.50;;;;;;;;;;4994827;28;20229;-84
2023/05/04 13:38:15;;;;;;;3.70;1.45;;;;;;;;;;4972579;28;20230;-84
2023/05/04 13:40:42;;;;;;;5.63;1.40;;;;;;;;;;5004043;28;20237;-81
2023/05/04 13:43:08;;;;;;;4.00;1.50;;;;;;;;;;4966025;28;20248;-81
2023/05/04 13:45:38;;;;;;;2.85;1.45;;;;;;;;;;4978610;28;20222;-81
2023/05/04 13:48:06;;;;;;;2.15;1.42;;;;;;;;;;4975560;28;20652;-80
2023/05/04 13:50:31;;;;;;;3.83;1.58;;;;;;;;;;4981002;28;20264;-80
2023/05/04 13:52:57;;;;;;;3.63;1.70;;;;;;;;;;4969739;28;20217;-81
2023/05/04 13:55:23;;;;;;;6.32;1.77;;;;;;;;;;4985584;28;20995;-79
2023/05/04 13:57:49;;;;;;;6.80;1.50;;;;;;;;;;4996770;28;20709;-81
2023/05/04 14:00:15;;;;;;;7.20;1.52;;;;;;;;;;4981604;28;20278;-83
2023/05/04 14:02:43;;;;;;;1.85;1.30;;;;;;;;;;4958152;28;21072;-82
2023/05/04 14:05:08;;;;;;;6.15;1.80;;;;;;;;;;4968123;28;20217;-83
2023/05/04 14:07:34;;;;;;;2.00;1.33;;;;;;;;;;4969416;28;20353;-82
2023/05/04 14:10:00;;;;;;;2.28;1.40;;;;;;;;;;4985616;28;20241;-83
2023/05/04 14:12:26;;;;;;;3.88;1.67;;;;;;;;;;4991020;28;20221;-82
2023/05/04 14:14:51;;;;;;;3.90;1.40;;;;;;;;;;4954892;28;20213;-82
2023/05/04 14:17:23;;;;;;;5.13;1.30;;;;;;;;;;4951996;28;20272;-82
2023/05/04 14:19:48;;;;;;;2.92;1.50;;;;;;;;;;4969650;28;20222;-80
2023/05/04 14:22:13;;;;;;;4.47;1.30;;;;;;;;;;4987797;28;20232;-79
2023/05/04 14:24:41;;;;;;;3.08;1.48;;;;;;;;;;4951499;28;20241;-80
2023/05/04 14:27:07;;;;;;;5.30;1.45;;;;;;;;;;4969862;28;20672;-83
2023/05/04 14:29:33;;;;;;;2.72;1.20;;;;;;;;;;4989089;28;20233;-81
2023/05/04 14:31:59;;;;;;;3.47;1.42;;;;;;;;;;4970428;28;20224;-82
2023/05/04 14:34:27;;;;;;;3.05;1.60;;;;;;;;;;4973289;28;20220;-82
2023/05/04 14:36:55;;;;;;;2.78;1.38;;;;;;;;;;4972695;28;20251;-81
2023/05/04 14:39:24;;;;;;;2.58;1.30;;;;;;;;;;4975605;28;20733;-81
2023/05/04 14:41:51;;;;;;;2.20;1.30;;;;;;;;;;4970837;28;20221;-81
2023/05/04 14:44:18;;;;;;;2.80;1.27;;;;;;;;;;4954189;28;20752;-81
2023/05/04 14:46:43;;;;;;;1.90;1.20;;;;;;;;;;4986765;28;20665;-82
2023/05/04 14:49:09;;;;;;;5.05;1.40;;;;;;;;;;4995325;28;20228;-80
2023/05/04 14:51:38;;;;;;;2.35;1.40;;;;;;;;;;4984648;28;20235;-80